sensor_id;sensor_type;location;lat;lon;timestamp;temperature;humidity
26954;DHT22;14508;50.924;11.600;2023-02-28T00:01:13;-0.30;99.90
26954;DHT22;14508;50.924;11.600;2023-02-28T00:03:42;-0.30;99.90
26954;DHT22;14508;50.924;11.600;2023-02-28T00:06:10;-0.30;99.90
26954;DHT22;14508;50.924;11.600;2023-02-28T00:08:38;-0.30;99.90
26954;DHT22;14508;50.924;11.600;2023-02-28T00:11:08;-0.30;99.90
26954;DHT22;14508;50.924;11.600;2023-02-28T00:13:39;-0.20;99.90
26954;DHT22;14508;50.924;11.600;2023-02-28T00:16:08;-0.20;99.90
26954;DHT22;14508;50.924;11.600;2023-02-28T00:18:38;-0.10;99.90
26954;DHT22;14508;50.924;11.600;2023-02-28T00:21:07;-0.10;99.90
26954;DHT22;14508;50.924;11.600;2023-02-28T00:23:35;-0.10;99.90
26954;DHT22;14508;50.924;11.600;2023-02-28T00:26:03;0.00;99.90
26954;DHT22;14508;50.924;11.600;2023-02-28T00:28:31;0.00;99.90
26954;DHT22;14508;50.924;11.600;2023-02-28T00:30:59;0.00;99.90
26954;DHT22;14508;50.924;11.600;2023-02-28T00:33:28;0.00;99.90
26954;DHT22;14508;50.924;11.600;2023-02-28T00:36:07;0.00;99.90
26954;DHT22;14508;50.924;11.600;2023-02-28T00:38:38;0.00;99.90
26954;DHT22;14508;50.924;11.600;2023-02-28T00:41:07;0.10;99.90
26954;DHT22;14508;50.924;11.600;2023-02-28T00:43:36;0.10;99.90
26954;DHT22;14508;50.924;11.600;2023-02-28T00:46:05;0.10;99.90
26954;DHT22;14508;50.924;11.600;2023-02-28T00:48:33;0.10;99.90
26954;DHT22;14508;50.924;11.600;2023-02-28T00:51:01;0.10;99.90
26954;DHT22;14508;50.924;11.600;2023-02-28T00:53:32;0.10;99.90
26954;DHT22;14508;50.924;11.600;2023-02-28T00:56:00;0.10;99.90
26954;DHT22;14508;50.924;11.600;2023-02-28T00:58:28;0.10;99.90
26954;DHT22;14508;50.924;11.600;2023-02-28T01:00:57;0.20;99.90
26954;DHT22;14508;50.924;11.600;2023-02-28T01:03:24;0.20;99.90
26954;DHT22;14508;50.924;11.600;2023-02-28T01:05:52;0.10;99.90
26954;DHT22;14508;50.924;11.600;2023-02-28T01:08:20;0.10;99.90
26954;DHT22;14508;50.924;11.600;2023-02-28T01:10:51;0.00;99.90
26954;DHT22;14508;50.924;11.600;2023-02-28T01:13:19;0.00;99.90
26954;DHT22;14508;50.924;11.600;2023-02-28T01:15:51;0.00;99.90
26954;DHT22;14508;50.924;11.600;2023-02-28T01:18:20;0.00;99.90
26954;DHT22;14508;50.924;11.600;2023-02-28T01:20:48;0.00;99.90
26954;DHT22;14508;50.924;11.600;2023-02-28T01:23:18;0.00;99.90
26954;DHT22;14508;50.924;11.600;2023-02-28T01:25:48;0.10;99.90
26954;DHT22;14508;50.924;11.600;2023-02-28T01:28:17;0.10;99.90
26954;DHT22;14508;50.924;11.600;2023-02-28T01:30:48;0.10;99.90
26954;DHT22;14508;50.924;11.600;2023-02-28T01:33:16;0.10;99.90
26954;DHT22;14508;50.924;11.600;2023-02-28T01:35:44;0.10;99.90
26954;DHT22;14508;50.924;11.600;2023-02-28T01:38:12;0.10;99.90
26954;DHT22;14508;50.924;11.600;2023-02-28T01:40:49;0.10;99.90
26954;DHT22;14508;50.924;11.600;2023-02-28T01:43:21;0.10;99.90
26954;DHT22;14508;50.924;11.600;2023-02-28T01:45:50;0.10;99.90
26954;DHT22;14508;50.924;11.600;2023-02-28T01:48:19;0.10;99.90
26954;DHT22;14508;50.924;11.600;2023-02-28T01:50:48;0.10;99.90
26954;DHT22;14508;50.924;11.600;2023-02-28T01:53:19;0.10;99.90
26954;DHT22;14508;50.924;11.600;2023-02-28T01:55:51;0.20;99.90
26954;DHT22;14508;50.924;11.600;2023-02-28T01:58:21;0.10;99.90
26954;DHT22;14508;50.924;11.600;2023-02-28T02:00:50;0.10;99.90
26954;DHT22;14508;50.924;11.600;2023-02-28T02:03:20;0.00;99.90
26954;DHT22;14508;50.924;11.600;2023-02-28T02:05:48;0.00;99.90
26954;DHT22;14508;50.924;11.600;2023-02-28T02:08:18;-0.10;99.90
26954;DHT22;14508;50.924;11.600;2023-02-28T02:10:49;-0.10;99.90
26954;DHT22;14508;50.924;11.600;2023-02-28T02:13:38;-0.20;99.90
26954;DHT22;14508;50.924;11.600;2023-02-28T02:16:23;-0.10;99.90
26954;DHT22;14508;50.924;11.600;2023-02-28T02:18:59;-0.20;99.90
26954;DHT22;14508;50.924;11.600;2023-02-28T02:22:09;-0.20;99.90
26954;DHT22;14508;50.924;11.600;2023-02-28T02:25:11;-0.30;99.90
26954;DHT22;14508;50.924;11.600;2023-02-28T02:27:54;-0.30;99.90
26954;DHT22;14508;50.924;11.600;2023-02-28T02:31:04;-0.40;99.90
26954;DHT22;14508;50.924;11.600;2023-02-28T02:34:00;-0.40;99.90
26954;DHT22;14508;50.924;11.600;2023-02-28T02:36:31;-0.50;99.90
26954;DHT22;14508;50.924;11.600;2023-02-28T02:39:05;-0.50;99.90
26954;DHT22;14508;50.924;11.600;2023-02-28T02:41:38;-0.60;99.90
26954;DHT22;14508;50.924;11.600;2023-02-28T02:44:10;-0.70;99.90
26954;DHT22;14508;50.924;11.600;2023-02-28T02:46:41;-0.70;99.90
26954;DHT22;14508;50.924;11.600;2023-02-28T02:49:19;-0.80;99.90
26954;DHT22;14508;50.924;11.600;2023-02-28T02:51:48;-0.80;99.90
26954;DHT22;14508;50.924;11.600;2023-02-28T02:54:19;-0.80;99.90
26954;DHT22;14508;50.924;11.600;2023-02-28T02:56:49;-0.80;99.90
26954;DHT22;14508;50.924;11.600;2023-02-28T02:59:21;-0.90;99.90
26954;DHT22;14508;50.924;11.600;2023-02-28T03:01:52;-0.80;99.90
26954;DHT22;14508;50.924;11.600;2023-02-28T03:04:24;-0.80;99.90
26954;DHT22;14508;50.924;11.600;2023-02-28T03:06:52;-0.80;99.90
26954;DHT22;14508;50.924;11.600;2023-02-28T03:09:21;-0.80;99.90
26954;DHT22;14508;50.924;11.600;2023-02-28T03:11:51;-0.80;99.90
26954;DHT22;14508;50.924;11.600;2023-02-28T03:14:26;-0.80;99.90
26954;DHT22;14508;50.924;11.600;2023-02-28T03:17:24;-0.80;99.90
26954;DHT22;14508;50.924;11.600;2023-02-28T03:20:03;-0.80;99.90
26954;DHT22;14508;50.924;11.600;2023-02-28T03:22:49;-0.70;99.90
26954;DHT22;14508;50.924;11.600;2023-02-28T03:25:27;-0.70;99.90
26954;DHT22;14508;50.924;11.600;2023-02-28T03:28:02;-0.70;99.90
26954;DHT22;14508;50.924;11.600;2023-02-28T03:30:36;-0.70;99.90
26954;DHT22;14508;50.924;11.600;2023-02-28T03:33:08;-0.70;99.90
26954;DHT22;14508;50.924;11.600;2023-02-28T03:35:43;-0.70;99.90
26954;DHT22;14508;50.924;11.600;2023-02-28T03:38:16;-0.70;99.90
26954;DHT22;14508;50.924;11.600;2023-02-28T03:40:49;-0.60;99.90
26954;DHT22;14508;50.924;11.600;2023-02-28T03:43:21;-0.60;99.90
26954;DHT22;14508;50.924;11.600;2023-02-28T03:45:51;-0.60;99.90
26954;DHT22;14508;50.924;11.600;2023-02-28T03:48:23;-0.60;99.90
26954;DHT22;14508;50.924;11.600;2023-02-28T03:50:54;-0.60;99.90
26954;DHT22;14508;50.924;11.600;2023-02-28T03:53:25;-0.60;99.90
26954;DHT22;14508;50.924;11.600;2023-02-28T03:55:59;-0.60;99.90
26954;DHT22;14508;50.924;11.600;2023-02-28T03:58:31;-0.60;99.90
26954;DHT22;14508;50.924;11.600;2023-02-28T04:01:07;-0.60;99.90
26954;DHT22;14508;50.924;11.600;2023-02-28T04:03:36;-0.60;99.90
26954;DHT22;14508;50.924;11.600;2023-02-28T04:06:08;-0.60;99.90
26954;DHT22;14508;50.924;11.600;2023-02-28T04:08:40;-0.60;99.90
26954;DHT22;14508;50.924;11.600;2023-02-28T04:11:20;-0.50;99.90
26954;DHT22;14508;50.924;11.600;2023-02-28T04:13:48;-0.50;99.90
26954;DHT22;14508;50.924;11.600;2023-02-28T04:16:16;-0.50;99.90
26954;DHT22;14508;50.924;11.600;2023-02-28T04:19:00;-0.60;99.90
26954;DHT22;14508;50.924;11.600;2023-02-28T04:21:31;-0.60;99.90
26954;DHT22;14508;50.924;11.600;2023-02-28T04:23:59;-0.60;99.90
26954;DHT22;14508;50.924;11.600;2023-02-28T04:26:29;-0.60;99.90
26954;DHT22;14508;50.924;11.600;2023-02-28T04:28:57;-0.60;99.90
26954;DHT22;14508;50.924;11.600;2023-02-28T04:31:25;-0.60;99.90
26954;DHT22;14508;50.924;11.600;2023-02-28T04:33:54;-0.70;99.90
26954;DHT22;14508;50.924;11.600;2023-02-28T04:36:22;-0.60;99.90
26954;DHT22;14508;50.924;11.600;2023-02-28T04:38:52;-0.60;99.90
26954;DHT22;14508;50.924;11.600;2023-02-28T04:41:21;-0.70;99.90
26954;DHT22;14508;50.924;11.600;2023-02-28T04:43:51;-0.70;99.90
26954;DHT22;14508;50.924;11.600;2023-02-28T04:46:19;-0.70;99.90
26954;DHT22;14508;50.924;11.600;2023-02-28T04:48:47;-0.70;99.90
26954;DHT22;14508;50.924;11.600;2023-02-28T04:51:17;-0.70;99.90
26954;DHT22;14508;50.924;11.600;2023-02-28T04:53:46;-0.70;99.90
26954;DHT22;14508;50.924;11.600;2023-02-28T04:56:16;-0.80;99.90
26954;DHT22;14508;50.924;11.600;2023-02-28T04:58:45;-0.80;99.90
26954;DHT22;14508;50.924;11.600;2023-02-28T05:01:20;-0.90;99.90
26954;DHT22;14508;50.924;11.600;2023-02-28T05:03:49;-0.90;99.90
26954;DHT22;14508;50.924;11.600;2023-02-28T05:06:19;-1.00;99.90
26954;DHT22;14508;50.924;11.600;2023-02-28T05:08:47;-1.10;99.90
26954;DHT22;14508;50.924;11.600;2023-02-28T05:11:19;-1.10;99.90
26954;DHT22;14508;50.924;11.600;2023-02-28T05:13:48;-1.20;99.90
26954;DHT22;14508;50.924;11.600;2023-02-28T05:16:17;-1.30;99.90
26954;DHT22;14508;50.924;11.600;2023-02-28T05:18:45;-1.30;99.90
26954;DHT22;14508;50.924;11.600;2023-02-28T05:21:26;-1.40;99.90
26954;DHT22;14508;50.924;11.600;2023-02-28T05:23:55;-1.50;99.90
26954;DHT22;14508;50.924;11.600;2023-02-28T05:26:26;-1.60;99.90
26954;DHT22;14508;50.924;11.600;2023-02-28T05:28:55;-1.60;99.90
26954;DHT22;14508;50.924;11.600;2023-02-28T05:31:23;-1.70;99.90
26954;DHT22;14508;50.924;11.600;2023-02-28T05:33:51;-1.70;99.90
26954;DHT22;14508;50.924;11.600;2023-02-28T05:36:19;-1.70;99.90
26954;DHT22;14508;50.924;11.600;2023-02-28T05:38:48;-1.80;99.90
26954;DHT22;14508;50.924;11.600;2023-02-28T05:41:17;-1.80;99.90
26954;DHT22;14508;50.924;11.600;2023-02-28T05:43:47;-1.90;99.90
26954;DHT22;14508;50.924;11.600;2023-02-28T05:46:16;-2.00;99.90
26954;DHT22;14508;50.924;11.600;2023-02-28T05:48:46;-2.00;99.90
26954;DHT22;14508;50.924;11.600;2023-02-28T05:51:15;-2.00;99.90
26954;DHT22;14508;50.924;11.600;2023-02-28T05:53:43;-2.10;99.90
26954;DHT22;14508;50.924;11.600;2023-02-28T05:56:11;-2.10;99.90
26954;DHT22;14508;50.924;11.600;2023-02-28T05:58:39;-2.10;99.90
26954;DHT22;14508;50.924;11.600;2023-02-28T06:01:23;-2.10;99.90
26954;DHT22;14508;50.924;11.600;2023-02-28T06:03:51;-2.20;99.90
26954;DHT22;14508;50.924;11.600;2023-02-28T06:06:19;-2.20;99.90
26954;DHT22;14508;50.924;11.600;2023-02-28T06:08:47;-2.30;99.90
26954;DHT22;14508;50.924;11.600;2023-02-28T06:11:15;-2.30;99.90
26954;DHT22;14508;50.924;11.600;2023-02-28T06:13:43;-2.30;99.90
26954;DHT22;14508;50.924;11.600;2023-02-28T06:16:11;-2.40;99.90
26954;DHT22;14508;50.924;11.600;2023-02-28T06:18:40;-2.30;99.90
26954;DHT22;14508;50.924;11.600;2023-02-28T06:21:08;-2.30;99.90
26954;DHT22;14508;50.924;11.600;2023-02-28T06:23:36;-2.30;99.90
26954;DHT22;14508;50.924;11.600;2023-02-28T06:26:04;-2.30;99.90
26954;DHT22;14508;50.924;11.600;2023-02-28T06:28:32;-2.30;99.90
26954;DHT22;14508;50.924;11.600;2023-02-28T06:31:06;-2.30;99.90
26954;DHT22;14508;50.924;11.600;2023-02-28T06:33:34;-2.30;99.90
26954;DHT22;14508;50.924;11.600;2023-02-28T06:36:05;-2.30;99.90
26954;DHT22;14508;50.924;11.600;2023-02-28T06:38:33;-2.30;99.90
26954;DHT22;14508;50.924;11.600;2023-02-28T06:41:02;-2.30;99.90
26954;DHT22;14508;50.924;11.600;2023-02-28T06:43:32;-2.30;99.90
26954;DHT22;14508;50.924;11.600;2023-02-28T06:46:03;-2.30;99.90
26954;DHT22;14508;50.924;11.600;2023-02-28T06:48:32;-2.30;99.90
26954;DHT22;14508;50.924;11.600;2023-02-28T06:51:04;-2.30;99.90
26954;DHT22;14508;50.924;11.600;2023-02-28T06:53:33;-2.30;99.90
26954;DHT22;14508;50.924;11.600;2023-02-28T06:56:04;-2.20;99.90
26954;DHT22;14508;50.924;11.600;2023-02-28T06:58:33;-2.20;99.90
26954;DHT22;14508;50.924;11.600;2023-02-28T07:01:02;-2.20;99.90
26954;DHT22;14508;50.924;11.600;2023-02-28T07:03:30;-2.20;99.90
26954;DHT22;14508;50.924;11.600;2023-02-28T07:06:00;-2.20;99.90
26954;DHT22;14508;50.924;11.600;2023-02-28T07:08:30;-2.20;99.90
26954;DHT22;14508;50.924;11.600;2023-02-28T07:10:59;-2.10;99.90
26954;DHT22;14508;50.924;11.600;2023-02-28T07:13:27;-2.00;99.90
26954;DHT22;14508;50.924;11.600;2023-02-28T07:15:56;-2.00;99.90
26954;DHT22;14508;50.924;11.600;2023-02-28T07:18:24;-2.00;99.90
26954;DHT22;14508;50.924;11.600;2023-02-28T07:20:53;-1.90;99.90
26954;DHT22;14508;50.924;11.600;2023-02-28T07:23:21;-1.90;99.90
26954;DHT22;14508;50.924;11.600;2023-02-28T07:25:51;-1.80;99.90
26954;DHT22;14508;50.924;11.600;2023-02-28T07:28:19;-1.80;99.90
26954;DHT22;14508;50.924;11.600;2023-02-28T07:30:47;-1.80;99.90
26954;DHT22;14508;50.924;11.600;2023-02-28T07:33:15;-1.70;99.90
26954;DHT22;14508;50.924;11.600;2023-02-28T07:35:43;-1.70;99.90
26954;DHT22;14508;50.924;11.600;2023-02-28T07:38:11;-1.60;99.90
26954;DHT22;14508;50.924;11.600;2023-02-28T07:40:40;-1.50;99.90
26954;DHT22;14508;50.924;11.600;2023-02-28T07:43:09;-1.40;99.90
26954;DHT22;14508;50.924;11.600;2023-02-28T07:45:37;-1.20;99.90
26954;DHT22;14508;50.924;11.600;2023-02-28T07:48:05;-1.00;99.90
26954;DHT22;14508;50.924;11.600;2023-02-28T07:50:36;-0.80;99.90
26954;DHT22;14508;50.924;11.600;2023-02-28T07:53:04;-0.60;99.90
26954;DHT22;14508;50.924;11.600;2023-02-28T07:55:32;-0.40;99.90
26954;DHT22;14508;50.924;11.600;2023-02-28T07:58:00;-0.30;99.90
26954;DHT22;14508;50.924;11.600;2023-02-28T08:00:29;-0.20;99.90
26954;DHT22;14508;50.924;11.600;2023-02-28T08:02:58;-0.20;99.90
26954;DHT22;14508;50.924;11.600;2023-02-28T08:05:26;-0.10;99.90
26954;DHT22;14508;50.924;11.600;2023-02-28T08:07:54;0.00;99.90
26954;DHT22;14508;50.924;11.600;2023-02-28T08:10:22;0.00;99.90
26954;DHT22;14508;50.924;11.600;2023-02-28T08:12:50;0.10;99.90
26954;DHT22;14508;50.924;11.600;2023-02-28T08:15:18;0.10;99.90
26954;DHT22;14508;50.924;11.600;2023-02-28T08:17:47;0.20;99.90
26954;DHT22;14508;50.924;11.600;2023-02-28T08:20:15;0.30;99.90
26954;DHT22;14508;50.924;11.600;2023-02-28T08:22:43;0.50;99.90
26954;DHT22;14508;50.924;11.600;2023-02-28T08:25:11;0.70;99.90
26954;DHT22;14508;50.924;11.600;2023-02-28T08:27:39;0.90;99.90
26954;DHT22;14508;50.924;11.600;2023-02-28T08:30:09;1.00;99.90
26954;DHT22;14508;50.924;11.600;2023-02-28T08:32:38;1.10;99.90
26954;DHT22;14508;50.924;11.600;2023-02-28T08:35:08;1.20;99.90
26954;DHT22;14508;50.924;11.600;2023-02-28T08:37:37;1.20;99.90
26954;DHT22;14508;50.924;11.600;2023-02-28T08:40:06;1.30;99.90
26954;DHT22;14508;50.924;11.600;2023-02-28T08:42:34;1.40;99.90
26954;DHT22;14508;50.924;11.600;2023-02-28T08:45:03;1.50;99.90
26954;DHT22;14508;50.924;11.600;2023-02-28T08:47:31;1.60;99.90
26954;DHT22;14508;50.924;11.600;2023-02-28T08:49:59;1.70;99.90
26954;DHT22;14508;50.924;11.600;2023-02-28T08:52:28;1.80;99.90
26954;DHT22;14508;50.924;11.600;2023-02-28T08:54:56;2.00;99.90
26954;DHT22;14508;50.924;11.600;2023-02-28T08:57:24;2.10;99.90
26954;DHT22;14508;50.924;11.600;2023-02-28T08:59:54;2.20;99.90
26954;DHT22;14508;50.924;11.600;2023-02-28T09:02:22;2.40;99.90
26954;DHT22;14508;50.924;11.600;2023-02-28T09:04:50;2.40;99.90
26954;DHT22;14508;50.924;11.600;2023-02-28T09:07:17;2.50;98.20
26954;DHT22;14508;50.924;11.600;2023-02-28T09:09:47;2.50;99.20
26954;DHT22;14508;50.924;11.600;2023-02-28T09:12:25;2.70;97.90
26954;DHT22;14508;50.924;11.600;2023-02-28T09:14:54;2.80;95.50
26954;DHT22;14508;50.924;11.600;2023-02-28T09:17:25;2.90;93.90
26954;DHT22;14508;50.924;11.600;2023-02-28T09:19:56;3.00;92.10
26954;DHT22;14508;50.924;11.600;2023-02-28T09:22:24;3.00;91.50
26954;DHT22;14508;50.924;11.600;2023-02-28T09:24:54;3.10;90.50
26954;DHT22;14508;50.924;11.600;2023-02-28T09:27:22;3.00;89.70
26954;DHT22;14508;50.924;11.600;2023-02-28T09:29:50;2.90;85.90
26954;DHT22;14508;50.924;11.600;2023-02-28T09:32:17;2.90;84.10
26954;DHT22;14508;50.924;11.600;2023-02-28T09:34:45;2.90;85.40
26954;DHT22;14508;50.924;11.600;2023-02-28T09:37:13;3.10;79.80
26954;DHT22;14508;50.924;11.600;2023-02-28T09:39:41;3.20;78.80
26954;DHT22;14508;50.924;11.600;2023-02-28T09:42:20;3.40;76.10
26954;DHT22;14508;50.924;11.600;2023-02-28T09:44:50;3.70;74.30
26954;DHT22;14508;50.924;11.600;2023-02-28T09:47:27;3.80;70.40
26954;DHT22;14508;50.924;11.600;2023-02-28T09:49:59;4.00;69.30
26954;DHT22;14508;50.924;11.600;2023-02-28T09:52:31;4.20;68.20
26954;DHT22;14508;50.924;11.600;2023-02-28T09:55:04;4.30;62.20
26954;DHT22;14508;50.924;11.600;2023-02-28T09:57:46;4.10;61.60
26954;DHT22;14508;50.924;11.600;2023-02-28T10:00:17;4.10;62.70
26954;DHT22;14508;50.924;11.600;2023-02-28T10:03:03;4.10;62.80
26954;DHT22;14508;50.924;11.600;2023-02-28T10:05:33;4.10;63.00
26954;DHT22;14508;50.924;11.600;2023-02-28T10:08:09;4.20;62.30
26954;DHT22;14508;50.924;11.600;2023-02-28T10:10:40;4.10;62.00
26954;DHT22;14508;50.924;11.600;2023-02-28T10:13:17;4.10;61.00
26954;DHT22;14508;50.924;11.600;2023-02-28T10:15:51;4.20;59.60
26954;DHT22;14508;50.924;11.600;2023-02-28T10:18:24;4.20;59.10
26954;DHT22;14508;50.924;11.600;2023-02-28T10:20:54;4.30;59.30
26954;DHT22;14508;50.924;11.600;2023-02-28T10:23:27;4.50;58.30
26954;DHT22;14508;50.924;11.600;2023-02-28T10:26:00;4.60;58.10
26954;DHT22;14508;50.924;11.600;2023-02-28T10:28:30;4.60;57.00
26954;DHT22;14508;50.924;11.600;2023-02-28T10:30:58;4.70;56.90
26954;DHT22;14508;50.924;11.600;2023-02-28T10:33:29;4.80;56.40
26954;DHT22;14508;50.924;11.600;2023-02-28T10:35:58;5.00;56.90
26954;DHT22;14508;50.924;11.600;2023-02-28T10:38:31;5.20;56.60
26954;DHT22;14508;50.924;11.600;2023-02-28T10:41:04;5.50;55.10
26954;DHT22;14508;50.924;11.600;2023-02-28T10:43:34;5.60;54.90
26954;DHT22;14508;50.924;11.600;2023-02-28T10:46:04;5.70;54.80
26954;DHT22;14508;50.924;11.600;2023-02-28T10:48:34;6.00;54.60
26954;DHT22;14508;50.924;11.600;2023-02-28T10:51:05;6.30;54.20
26954;DHT22;14508;50.924;11.600;2023-02-28T10:53:38;6.50;53.50
26954;DHT22;14508;50.924;11.600;2023-02-28T10:56:26;6.60;53.10
26954;DHT22;14508;50.924;11.600;2023-02-28T10:58:58;6.80;52.30
26954;DHT22;14508;50.924;11.600;2023-02-28T11:01:35;7.00;51.50
26954;DHT22;14508;50.924;11.600;2023-02-28T11:04:16;7.00;51.50
26954;DHT22;14508;50.924;11.600;2023-02-28T11:06:46;7.20;52.00
26954;DHT22;14508;50.924;11.600;2023-02-28T11:09:29;7.30;51.80
26954;DHT22;14508;50.924;11.600;2023-02-28T11:11:58;7.50;51.60
26954;DHT22;14508;50.924;11.600;2023-02-28T11:14:29;7.50;50.70
26954;DHT22;14508;50.924;11.600;2023-02-28T11:17:02;7.60;50.40
26954;DHT22;14508;50.924;11.600;2023-02-28T11:19:40;7.70;50.60
26954;DHT22;14508;50.924;11.600;2023-02-28T11:22:18;7.70;50.00
26954;DHT22;14508;50.924;11.600;2023-02-28T11:24:49;7.70;49.70
26954;DHT22;14508;50.924;11.600;2023-02-28T11:27:45;7.60;49.40
26954;DHT22;14508;50.924;11.600;2023-02-28T11:30:29;7.70;50.30
26954;DHT22;14508;50.924;11.600;2023-02-28T11:32:57;7.60;50.10
26954;DHT22;14508;50.924;11.600;2023-02-28T11:35:29;7.30;49.90
26954;DHT22;14508;50.924;11.600;2023-02-28T11:37:58;7.20;50.30
26954;DHT22;14508;50.924;11.600;2023-02-28T11:40:31;7.00;50.60
26954;DHT22;14508;50.924;11.600;2023-02-28T11:43:11;6.80;50.50
26954;DHT22;14508;50.924;11.600;2023-02-28T11:45:49;6.80;50.40
26954;DHT22;14508;50.924;11.600;2023-02-28T11:48:22;6.70;50.90
26954;DHT22;14508;50.924;11.600;2023-02-28T11:50:59;6.70;51.50
26954;DHT22;14508;50.924;11.600;2023-02-28T11:54:00;6.70;51.10
26954;DHT22;14508;50.924;11.600;2023-02-28T11:56:33;6.70;51.20
26954;DHT22;14508;50.924;11.600;2023-02-28T12:02:06;6.10;50.60
26954;DHT22;14508;50.924;11.600;2023-02-28T12:04:50;5.90;50.00
26954;DHT22;14508;50.924;11.600;2023-02-28T12:07:31;5.70;50.90
26954;DHT22;14508;50.924;11.600;2023-02-28T12:10:09;5.50;51.50
26954;DHT22;14508;50.924;11.600;2023-02-28T12:12:43;5.40;51.90
26954;DHT22;14508;50.924;11.600;2023-02-28T12:15:43;5.30;52.40
26954;DHT22;14508;50.924;11.600;2023-02-28T12:18:32;5.30;52.90
26954;DHT22;14508;50.924;11.600;2023-02-28T12:21:10;5.30;52.20
26954;DHT22;14508;50.924;11.600;2023-02-28T12:26:36;5.40;52.10
26954;DHT22;14508;50.924;11.600;2023-02-28T12:29:12;5.40;51.70
26954;DHT22;14508;50.924;11.600;2023-02-28T12:31:46;5.30;52.10
26954;DHT22;14508;50.924;11.600;2023-02-28T12:34:20;5.20;52.60
26954;DHT22;14508;50.924;11.600;2023-02-28T12:36:52;5.10;52.80
26954;DHT22;14508;50.924;11.600;2023-02-28T12:39:25;4.80;52.70
26954;DHT22;14508;50.924;11.600;2023-02-28T12:41:56;4.60;52.90
26954;DHT22;14508;50.924;11.600;2023-02-28T12:44:30;4.60;53.80
26954;DHT22;14508;50.924;11.600;2023-02-28T12:47:00;4.60;54.60
26954;DHT22;14508;50.924;11.600;2023-02-28T12:49:34;4.60;54.20
26954;DHT22;14508;50.924;11.600;2023-02-28T12:52:05;4.80;53.90
26954;DHT22;14508;50.924;11.600;2023-02-28T12:54:44;4.70;53.80
26954;DHT22;14508;50.924;11.600;2023-02-28T12:57:18;4.70;53.50
26954;DHT22;14508;50.924;11.600;2023-02-28T12:59:53;4.70;54.10
26954;DHT22;14508;50.924;11.600;2023-02-28T13:02:41;4.70;54.00
26954;DHT22;14508;50.924;11.600;2023-02-28T13:05:46;4.70;53.80
26954;DHT22;14508;50.924;11.600;2023-02-28T13:08:39;4.70;54.40
26954;DHT22;14508;50.924;11.600;2023-02-28T13:11:23;4.70;54.40
26954;DHT22;14508;50.924;11.600;2023-02-28T13:13:58;4.80;54.20
26954;DHT22;14508;50.924;11.600;2023-02-28T13:16:26;4.80;54.40
26954;DHT22;14508;50.924;11.600;2023-02-28T13:19:09;4.80;54.50
26954;DHT22;14508;50.924;11.600;2023-02-28T13:21:44;4.90;54.00
26954;DHT22;14508;50.924;11.600;2023-02-28T13:24:45;5.00;54.30
26954;DHT22;14508;50.924;11.600;2023-02-28T13:27:32;5.10;54.30
26954;DHT22;14508;50.924;11.600;2023-02-28T13:30:01;5.20;53.30
26954;DHT22;14508;50.924;11.600;2023-02-28T13:32:35;5.20;53.60
26954;DHT22;14508;50.924;11.600;2023-02-28T13:35:35;5.20;53.80
26954;DHT22;14508;50.924;11.600;2023-02-28T13:38:32;5.30;54.00
26954;DHT22;14508;50.924;11.600;2023-02-28T13:44:08;5.50;54.40
26954;DHT22;14508;50.924;11.600;2023-02-28T13:49:43;5.60;53.80
26954;DHT22;14508;50.924;11.600;2023-02-28T13:52:16;5.60;53.10
26954;DHT22;14508;50.924;11.600;2023-02-28T13:55:18;5.60;52.90
26954;DHT22;14508;50.924;11.600;2023-02-28T13:58:00;5.50;53.70
26954;DHT22;14508;50.924;11.600;2023-02-28T14:00:45;5.50;54.40
26954;DHT22;14508;50.924;11.600;2023-02-28T14:03:32;5.50;53.40
26954;DHT22;14508;50.924;11.600;2023-02-28T14:06:18;5.50;53.90
26954;DHT22;14508;50.924;11.600;2023-02-28T14:08:54;5.50;53.20
26954;DHT22;14508;50.924;11.600;2023-02-28T14:11:28;5.30;53.30
26954;DHT22;14508;50.924;11.600;2023-02-28T14:13:57;5.20;53.90
26954;DHT22;14508;50.924;11.600;2023-02-28T14:16:27;5.20;54.30
26954;DHT22;14508;50.924;11.600;2023-02-28T14:19:00;5.10;54.60
26954;DHT22;14508;50.924;11.600;2023-02-28T14:21:32;5.00;54.40
26954;DHT22;14508;50.924;11.600;2023-02-28T14:24:13;4.90;54.80
26954;DHT22;14508;50.924;11.600;2023-02-28T14:32:54;4.70;55.80
26954;DHT22;14508;50.924;11.600;2023-02-28T14:35:40;4.70;55.70
26954;DHT22;14508;50.924;11.600;2023-02-28T14:38:17;4.80;56.00
26954;DHT22;14508;50.924;11.600;2023-02-28T14:40:51;4.90;55.70
26954;DHT22;14508;50.924;11.600;2023-02-28T14:43:22;4.90;55.20
26954;DHT22;14508;50.924;11.600;2023-02-28T14:45:53;4.90;55.00
26954;DHT22;14508;50.924;11.600;2023-02-28T14:48:22;4.80;55.10
26954;DHT22;14508;50.924;11.600;2023-02-28T14:50:56;4.80;55.20
26954;DHT22;14508;50.924;11.600;2023-02-28T14:53:27;4.80;55.20
26954;DHT22;14508;50.924;11.600;2023-02-28T14:55:55;4.70;55.30
26954;DHT22;14508;50.924;11.600;2023-02-28T14:58:27;4.70;55.80
26954;DHT22;14508;50.924;11.600;2023-02-28T15:00:57;4.60;56.20
26954;DHT22;14508;50.924;11.600;2023-02-28T15:03:31;4.60;56.60
26954;DHT22;14508;50.924;11.600;2023-02-28T15:06:00;4.60;56.10
26954;DHT22;14508;50.924;11.600;2023-02-28T15:08:29;4.70;56.50
26954;DHT22;14508;50.924;11.600;2023-02-28T15:11:03;4.70;56.60
26954;DHT22;14508;50.924;11.600;2023-02-28T15:13:37;4.70;56.50
26954;DHT22;14508;50.924;11.600;2023-02-28T15:16:08;4.70;56.30
26954;DHT22;14508;50.924;11.600;2023-02-28T15:18:44;4.70;56.60
26954;DHT22;14508;50.924;11.600;2023-02-28T15:21:16;4.70;56.90
26954;DHT22;14508;50.924;11.600;2023-02-28T15:23:48;4.70;56.60
26954;DHT22;14508;50.924;11.600;2023-02-28T15:26:20;4.70;56.60
26954;DHT22;14508;50.924;11.600;2023-02-28T15:28:51;4.70;56.90
26954;DHT22;14508;50.924;11.600;2023-02-28T15:31:26;4.70;56.90
26954;DHT22;14508;50.924;11.600;2023-02-28T15:33:56;4.80;56.60
26954;DHT22;14508;50.924;11.600;2023-02-28T15:36:25;4.90;56.80
26954;DHT22;14508;50.924;11.600;2023-02-28T15:38:55;5.00;56.80
26954;DHT22;14508;50.924;11.600;2023-02-28T15:41:37;5.00;56.60
26954;DHT22;14508;50.924;11.600;2023-02-28T15:44:18;4.90;56.70
26954;DHT22;14508;50.924;11.600;2023-02-28T15:46:59;4.90;57.40
26954;DHT22;14508;50.924;11.600;2023-02-28T15:49:28;4.80;57.50
26954;DHT22;14508;50.924;11.600;2023-02-28T15:52:03;4.70;57.80
26954;DHT22;14508;50.924;11.600;2023-02-28T15:54:33;4.70;58.10
26954;DHT22;14508;50.924;11.600;2023-02-28T15:57:04;4.50;58.10
26954;DHT22;14508;50.924;11.600;2023-02-28T15:59:36;4.40;58.60
26954;DHT22;14508;50.924;11.600;2023-02-28T16:02:15;4.30;58.70
26954;DHT22;14508;50.924;11.600;2023-02-28T16:04:59;4.10;58.90
26954;DHT22;14508;50.924;11.600;2023-02-28T16:07:28;4.00;59.10
26954;DHT22;14508;50.924;11.600;2023-02-28T16:09:56;3.80;59.10
26954;DHT22;14508;50.924;11.600;2023-02-28T16:12:28;3.70;59.60
26954;DHT22;14508;50.924;11.600;2023-02-28T16:15:00;3.60;59.50
26954;DHT22;14508;50.924;11.600;2023-02-28T16:17:33;3.50;59.70